Acton, California
Current Conditions -  °F | °C
As of 3:53 PM on Monday 22 Dec 2014 (Local Time) from KPMD Reporting Station
Clear Clear  
Wind Chill: 63°   Ceiling: Unl
Heat Index: 63°   Visibility: 10mi
Dew Point: 41°   Wind: 14mph
Humidity: 45%   Direction: 320°NW
Pressure: 30.07"   Gusts: NA
Location:  34.47°N, 118.2°W
Report Text: KPMD 222353Z AUTO 32012KT 10SM CLR 17/05 A3007 RMK AO2 SLP176 T01720050 10200 20144 56008
Loading
Personal Weather Stations






























Interactive Weather Map New forecast layout! Learn more

10-Day Weather Forecast

Advertisements
Track Severe Weather on mobile